Glencove, Washington
Current Conditions -  °F | °C
As of 11:41 PM on Wednesday 22 Oct 2014 (Local Time) from KTIW Reporting Station
Overcast Overcast  
Wind Chill: 55°   Ceiling: 2100
Heat Index: 55°   Visibility: 10mi
Dew Point: 48°   Wind: 6mph
Humidity: 77%   Direction: 240°WSW
Pressure: 29.71"   Gusts: NA
Location:  47.2986°N, 122.616°W
Report Text: KTIW 230641Z AUTO 24005KT 10SM BKN021 BKN027 OVC034 13/09 A2971 RMK AO2 PK WND 19027/0617 T01280089
Loading
Personal Weather Stations






























Interactive Weather Map New forecast layout! Learn more

10-Day Weather Forecast

Advertisements
Track Severe Weather on mobile